sensor_id;sensor_type;location;lat;lon;timestamp;pressure;altitude;pressure_sealevel;temperature;humidity
75039;BME280;63609;49.992;14.512;2022-11-20T00:00:22;97631.34;;;-3.47;62.12
75039;BME280;63609;49.992;14.512;2022-11-20T00:02:48;97628.94;;;-3.35;64.15
75039;BME280;63609;49.992;14.512;2022-11-20T00:05:15;97626.56;;;-3.22;62.47
75039;BME280;63609;49.992;14.512;2022-11-20T00:07:43;97631.72;;;-3.20;63.35
75039;BME280;63609;49.992;14.512;2022-11-20T00:10:10;97629.00;;;-3.53;64.61
75039;BME280;63609;49.992;14.512;2022-11-20T00:12:37;97634.88;;;-3.14;62.49
75039;BME280;63609;49.992;14.512;2022-11-20T00:15:04;97627.56;;;-3.07;62.58
75039;BME280;63609;49.992;14.512;2022-11-20T00:17:30;97636.69;;;-2.99;62.12
75039;BME280;63609;49.992;14.512;2022-11-20T00:19:57;97629.94;;;-3.03;62.67
75039;BME280;63609;49.992;14.512;2022-11-20T00:22:24;97620.72;;;-2.92;62.95
75039;BME280;63609;49.992;14.512;2022-11-20T00:24:51;97637.38;;;-2.78;61.54
75039;BME280;63609;49.992;14.512;2022-11-20T00:27:18;97615.97;;;-2.84;62.25
75039;BME280;63609;49.992;14.512;2022-11-20T00:29:45;97629.53;;;-2.78;61.44
75039;BME280;63609;49.992;14.512;2022-11-20T00:32:11;97633.00;;;-2.77;61.99
75039;BME280;63609;49.992;14.512;2022-11-20T00:34:38;97632.44;;;-2.67;62.10
75039;BME280;63609;49.992;14.512;2022-11-20T00:37:05;97641.50;;;-2.74;63.14
75039;BME280;63609;49.992;14.512;2022-11-20T00:39:32;97623.19;;;-2.56;62.47
75039;BME280;63609;49.992;14.512;2022-11-20T00:41:59;97633.00;;;-2.44;60.99
75039;BME280;63609;49.992;14.512;2022-11-20T00:44:26;97625.31;;;-2.47;60.99
75039;BME280;63609;49.992;14.512;2022-11-20T00:46:53;97628.56;;;-2.59;61.05
75039;BME280;63609;49.992;14.512;2022-11-20T00:49:20;97630.56;;;-2.65;62.07
75039;BME280;63609;49.992;14.512;2022-11-20T00:51:46;97641.03;;;-2.32;60.87
75039;BME280;63609;49.992;14.512;2022-11-20T00:54:13;97627.63;;;-2.58;62.19
75039;BME280;63609;49.992;14.512;2022-11-20T00:56:40;97631.19;;;-2.59;61.39
75039;BME280;63609;49.992;14.512;2022-11-20T00:59:08;97632.56;;;-2.52;61.43
75039;BME280;63609;49.992;14.512;2022-11-20T01:01:36;97622.19;;;-2.54;61.63
75039;BME280;63609;49.992;14.512;2022-11-20T01:04:02;97625.31;;;-2.47;61.16
75039;BME280;63609;49.992;14.512;2022-11-20T01:06:32;97627.00;;;-2.46;61.25
75039;BME280;63609;49.992;14.512;2022-11-20T01:09:04;97644.41;;;-2.63;62.50
75039;BME280;63609;49.992;14.512;2022-11-20T01:11:34;97640.19;;;-2.65;62.29
75039;BME280;63609;49.992;14.512;2022-11-20T01:14:03;97633.63;;;-2.56;61.72
75039;BME280;63609;49.992;14.512;2022-11-20T01:16:32;97634.69;;;-2.43;61.45
75039;BME280;63609;49.992;14.512;2022-11-20T01:19:02;97623.97;;;-2.39;61.06
75039;BME280;63609;49.992;14.512;2022-11-20T01:21:34;97637.56;;;-2.32;61.58
75039;BME280;63609;49.992;14.512;2022-11-20T01:24:02;97637.81;;;-2.37;60.38
75039;BME280;63609;49.992;14.512;2022-11-20T01:26:31;97633.00;;;-2.44;60.89
75039;BME280;63609;49.992;14.512;2022-11-20T01:28:59;97645.22;;;-2.45;61.90
75039;BME280;63609;49.992;14.512;2022-11-20T01:34:02;97641.25;;;-2.52;62.35
75039;BME280;63609;49.992;14.512;2022-11-20T01:36:30;97641.88;;;-2.31;60.98
75039;BME280;63609;49.992;14.512;2022-11-20T01:39:00;97634.34;;;-2.37;60.92
75039;BME280;63609;49.992;14.512;2022-11-20T01:41:29;97630.38;;;-2.44;61.82
75039;BME280;63609;49.992;14.512;2022-11-20T01:44:17;97628.91;;;-2.17;60.77
75039;BME280;63609;49.992;14.512;2022-11-20T01:52:03;97637.97;;;-2.40;61.55
75039;BME280;63609;49.992;14.512;2022-11-20T01:54:38;97620.53;;;-2.39;61.90
75039;BME280;63609;49.992;14.512;2022-11-20T01:57:09;97635.13;;;-2.35;62.25
75039;BME280;63609;49.992;14.512;2022-11-20T01:59:41;97615.28;;;-2.39;61.51
75039;BME280;63609;49.992;14.512;2022-11-20T02:02:09;97614.19;;;-2.35;61.13
75039;BME280;63609;49.992;14.512;2022-11-20T02:04:38;97627.88;;;-2.30;61.78
75039;BME280;63609;49.992;14.512;2022-11-20T02:07:05;97621.22;;;-2.20;61.01
75039;BME280;63609;49.992;14.512;2022-11-20T02:09:32;97624.88;;;-2.22;61.30
75039;BME280;63609;49.992;14.512;2022-11-20T02:11:58;97615.75;;;-2.15;60.93
75039;BME280;63609;49.992;14.512;2022-11-20T02:14:26;97614.81;;;-2.14;61.70
75039;BME280;63609;49.992;14.512;2022-11-20T02:16:54;97610.69;;;-2.03;60.40
75039;BME280;63609;49.992;14.512;2022-11-20T02:19:28;97617.00;;;-2.07;60.46
75039;BME280;63609;49.992;14.512;2022-11-20T02:24:22;97598.00;;;-2.26;61.34
75039;BME280;63609;49.992;14.512;2022-11-20T02:26:53;97605.28;;;-2.15;61.08
75039;BME280;63609;49.992;14.512;2022-11-20T02:31:57;97584.63;;;-2.20;60.94
75039;BME280;63609;49.992;14.512;2022-11-20T02:34:25;97588.00;;;-2.18;61.61
75039;BME280;63609;49.992;14.512;2022-11-20T02:36:52;97588.00;;;-2.18;61.38
75039;BME280;63609;49.992;14.512;2022-11-20T02:39:20;97588.66;;;-2.14;61.06
75039;BME280;63609;49.992;14.512;2022-11-20T02:41:48;97585.31;;;-2.16;61.39
75039;BME280;63609;49.992;14.512;2022-11-20T02:44:15;97595.00;;;-2.18;60.76
75039;BME280;63609;49.992;14.512;2022-11-20T02:46:42;97593.88;;;-1.98;59.86
75039;BME280;63609;49.992;14.512;2022-11-20T02:49:08;97590.84;;;-2.07;60.05
75039;BME280;63609;49.992;14.512;2022-11-20T02:51:35;97590.34;;;-2.13;60.75
75039;BME280;63609;49.992;14.512;2022-11-20T02:54:02;97597.94;;;-2.09;61.12
75039;BME280;63609;49.992;14.512;2022-11-20T02:56:31;97597.09;;;-2.09;61.46
75039;BME280;63609;49.992;14.512;2022-11-20T02:58:58;97592.03;;;-2.12;61.50
75039;BME280;63609;49.992;14.512;2022-11-20T03:01:26;97590.50;;;-2.01;60.40
75039;BME280;63609;49.992;14.512;2022-11-20T03:03:53;97581.66;;;-2.14;60.91
75039;BME280;63609;49.992;14.512;2022-11-20T03:06:21;97578.13;;;-2.13;60.37
75039;BME280;63609;49.992;14.512;2022-11-20T03:08:47;97585.63;;;-2.07;60.98
75039;BME280;63609;49.992;14.512;2022-11-20T03:11:14;97575.44;;;-2.11;61.21
75039;BME280;63609;49.992;14.512;2022-11-20T03:13:41;97577.69;;;-2.05;60.58
75039;BME280;63609;49.992;14.512;2022-11-20T03:16:20;97575.56;;;-1.98;60.17
75039;BME280;63609;49.992;14.512;2022-11-20T03:18:47;97561.41;;;-2.10;59.92
75039;BME280;63609;49.992;14.512;2022-11-20T03:21:16;97564.75;;;-1.92;59.68
75039;BME280;63609;49.992;14.512;2022-11-20T03:23:43;97571.28;;;-2.31;62.30
75039;BME280;63609;49.992;14.512;2022-11-20T03:28:50;97574.16;;;-2.20;61.54
75039;BME280;63609;49.992;14.512;2022-11-20T03:31:21;97567.41;;;-2.24;61.37
75039;BME280;63609;49.992;14.512;2022-11-20T03:33:48;97576.78;;;-2.20;60.77
75039;BME280;63609;49.992;14.512;2022-11-20T03:36:16;97577.63;;;-2.19;60.96
75039;BME280;63609;49.992;14.512;2022-11-20T03:38:43;97581.66;;;-2.29;61.18
75039;BME280;63609;49.992;14.512;2022-11-20T03:41:13;97585.03;;;-2.43;61.67
75039;BME280;63609;49.992;14.512;2022-11-20T03:43:39;97585.03;;;-2.43;61.69
75039;BME280;63609;49.992;14.512;2022-11-20T03:46:07;97589.50;;;-2.45;61.63
75039;BME280;63609;49.992;14.512;2022-11-20T03:48:34;97595.59;;;-2.62;62.21
75039;BME280;63609;49.992;14.512;2022-11-20T03:51:11;97596.44;;;-2.62;61.88
75039;BME280;63609;49.992;14.512;2022-11-20T03:53:39;97580.91;;;-2.47;61.63
75039;BME280;63609;49.992;14.512;2022-11-20T03:56:15;97596.38;;;-2.60;62.02
75039;BME280;63609;49.992;14.512;2022-11-20T03:58:43;97595.09;;;-2.69;62.13
75039;BME280;63609;49.992;14.512;2022-11-20T04:01:14;97599.03;;;-2.44;61.20
75039;BME280;63609;49.992;14.512;2022-11-20T04:03:42;97589.19;;;-2.56;62.21
75039;BME280;63609;49.992;14.512;2022-11-20T04:06:12;97600.63;;;-2.42;61.41
75039;BME280;63609;49.992;14.512;2022-11-20T04:08:41;97606.09;;;-2.46;61.49
75039;BME280;63609;49.992;14.512;2022-11-20T04:11:20;97599.88;;;-2.44;61.55
75039;BME280;63609;49.992;14.512;2022-11-20T04:13:49;97605.50;;;-2.36;61.03
75039;BME280;63609;49.992;14.512;2022-11-20T04:16:17;97591.94;;;-2.42;61.32
75039;BME280;63609;49.992;14.512;2022-11-20T04:18:44;97603.25;;;-2.26;61.30
75039;BME280;63609;49.992;14.512;2022-11-20T04:21:11;97603.69;;;-2.18;60.40
75039;BME280;63609;49.992;14.512;2022-11-20T04:23:39;97596.69;;;-2.17;59.42
75039;BME280;63609;49.992;14.512;2022-11-20T04:26:10;97608.59;;;-2.12;60.29
75039;BME280;63609;49.992;14.512;2022-11-20T04:28:37;97596.09;;;-2.22;60.27
75039;BME280;63609;49.992;14.512;2022-11-20T04:31:07;97589.06;;;-2.38;60.60
75039;BME280;63609;49.992;14.512;2022-11-20T04:33:35;97589.06;;;-2.38;60.81
75039;BME280;63609;49.992;14.512;2022-11-20T04:36:09;97593.72;;;-2.43;61.14
75039;BME280;63609;49.992;14.512;2022-11-20T04:38:37;97585.81;;;-2.58;61.50
75039;BME280;63609;49.992;14.512;2022-11-20T04:41:06;97585.97;;;-2.77;62.02
75039;BME280;63609;49.992;14.512;2022-11-20T04:43:34;97594.38;;;-2.55;61.83
75039;BME280;63609;49.992;14.512;2022-11-20T04:46:01;97592.03;;;-2.77;61.87
75039;BME280;63609;49.992;14.512;2022-11-20T04:48:28;97583.91;;;-2.88;62.10
75039;BME280;63609;49.992;14.512;2022-11-20T04:50:56;97583.88;;;-3.04;62.44
75039;BME280;63609;49.992;14.512;2022-11-20T04:53:23;97583.53;;;-2.80;61.57
75039;BME280;63609;49.992;14.512;2022-11-20T04:56:03;97571.00;;;-2.91;62.30
75039;BME280;63609;49.992;14.512;2022-11-20T04:58:31;97562.50;;;-2.95;61.96
75039;BME280;63609;49.992;14.512;2022-11-20T05:01:06;97561.50;;;-2.92;62.82
75039;BME280;63609;49.992;14.512;2022-11-20T05:03:33;97569.44;;;-3.11;63.04
75039;BME280;63609;49.992;14.512;2022-11-20T05:06:07;97556.34;;;-2.94;62.76
75039;BME280;63609;49.992;14.512;2022-11-20T05:08:34;97564.19;;;-2.94;62.42
75039;BME280;63609;49.992;14.512;2022-11-20T05:11:07;97559.38;;;-3.01;62.76
75039;BME280;63609;49.992;14.512;2022-11-20T05:13:34;97549.50;;;-2.79;62.42
75039;BME280;63609;49.992;14.512;2022-11-20T05:18:31;97558.34;;;-2.66;61.99
75039;BME280;63609;49.992;14.512;2022-11-20T05:20:58;97561.72;;;-2.64;61.70
75039;BME280;63609;49.992;14.512;2022-11-20T05:23:26;97564.88;;;-2.90;62.10
75039;BME280;63609;49.992;14.512;2022-11-20T05:25:55;97560.03;;;-2.65;61.85
75039;BME280;63609;49.992;14.512;2022-11-20T05:28:25;97568.91;;;-2.51;61.69
75039;BME280;63609;49.992;14.512;2022-11-20T05:30:53;97566.31;;;-2.51;61.81
75039;BME280;63609;49.992;14.512;2022-11-20T05:33:20;97568.63;;;-2.63;61.52
75039;BME280;63609;49.992;14.512;2022-11-20T05:35:48;97554.47;;;-2.74;61.85
75039;BME280;63609;49.992;14.512;2022-11-20T05:38:15;97558.59;;;-3.03;62.64
75039;BME280;63609;49.992;14.512;2022-11-20T05:40:42;97545.09;;;-3.11;63.42
75039;BME280;63609;49.992;14.512;2022-11-20T05:43:09;97550.34;;;-3.29;63.68
75039;BME280;63609;49.992;14.512;2022-11-20T05:45:35;97551.34;;;-3.14;63.42
75039;BME280;63609;49.992;14.512;2022-11-20T05:48:02;97550.75;;;-3.03;63.16
75039;BME280;63609;49.992;14.512;2022-11-20T05:50:29;97545.66;;;-2.89;62.53
75039;BME280;63609;49.992;14.512;2022-11-20T05:52:59;97550.56;;;-2.83;62.13
75039;BME280;63609;49.992;14.512;2022-11-20T05:55:27;97563.53;;;-3.14;63.55
75039;BME280;63609;49.992;14.512;2022-11-20T05:57:54;97562.88;;;-3.18;62.51
75039;BME280;63609;49.992;14.512;2022-11-20T06:00:22;97565.00;;;-3.09;63.55
75039;BME280;63609;49.992;14.512;2022-11-20T06:02:48;97578.31;;;-2.80;62.42
75039;BME280;63609;49.992;14.512;2022-11-20T06:05:15;97569.38;;;-2.76;61.56
75039;BME280;63609;49.992;14.512;2022-11-20T06:07:42;97565.56;;;-2.86;62.23
75039;BME280;63609;49.992;14.512;2022-11-20T06:10:16;97512.09;;;-3.12;61.93
75039;BME280;63609;49.992;14.512;2022-11-20T06:12:43;97517.63;;;-3.18;62.12
75039;BME280;63609;49.992;14.512;2022-11-20T06:15:10;97568.66;;;-2.47;60.39
75039;BME280;63609;49.992;14.512;2022-11-20T06:18:03;97563.28;;;-2.44;59.90
75039;BME280;63609;49.992;14.512;2022-11-20T06:20:29;97532.31;;;-2.67;60.32
75039;BME280;63609;49.992;14.512;2022-11-20T06:23:03;97559.69;;;-2.58;60.82
75039;BME280;63609;49.992;14.512;2022-11-20T06:25:30;97530.97;;;-2.58;60.78
75039;BME280;63609;49.992;14.512;2022-11-20T06:27:56;97527.19;;;-2.53;60.30
75039;BME280;63609;49.992;14.512;2022-11-20T06:30:23;97528.28;;;-2.41;60.37
75039;BME280;63609;49.992;14.512;2022-11-20T06:32:50;97554.84;;;-2.33;59.92
75039;BME280;63609;49.992;14.512;2022-11-20T06:35:17;97553.31;;;-2.37;60.79
75039;BME280;63609;49.992;14.512;2022-11-20T06:37:44;97555.38;;;-2.75;62.29
75039;BME280;63609;49.992;14.512;2022-11-20T06:40:11;97543.09;;;-3.06;62.94
75039;BME280;63609;49.992;14.512;2022-11-20T06:42:38;97552.97;;;-2.96;62.94
75039;BME280;63609;49.992;14.512;2022-11-20T06:45:05;97554.06;;;-2.35;60.97
75039;BME280;63609;49.992;14.512;2022-11-20T06:47:32;97557.00;;;-2.57;61.59
75039;BME280;63609;49.992;14.512;2022-11-20T06:50:00;97537.59;;;-3.17;63.97
75039;BME280;63609;49.992;14.512;2022-11-20T06:52:29;97513.50;;;-3.40;63.83
75039;BME280;63609;49.992;14.512;2022-11-20T06:54:56;97555.31;;;-3.24;63.97
75039;BME280;63609;49.992;14.512;2022-11-20T06:57:23;97572.16;;;-2.79;63.01
75039;BME280;63609;49.992;14.512;2022-11-20T06:59:53;97535.38;;;-2.43;61.70
75039;BME280;63609;49.992;14.512;2022-11-20T07:02:20;97541.34;;;-2.25;61.07
75039;BME280;63609;49.992;14.512;2022-11-20T07:04:47;97534.69;;;-2.31;60.97
75039;BME280;63609;49.992;14.512;2022-11-20T07:07:14;97512.50;;;-2.24;60.84
75039;BME280;63609;49.992;14.512;2022-11-20T07:09:41;97495.16;;;-2.41;60.73
75039;BME280;63609;49.992;14.512;2022-11-20T07:12:08;97524.41;;;-2.50;61.71
75039;BME280;63609;49.992;14.512;2022-11-20T07:14:34;97527.50;;;-2.75;62.24
75039;BME280;63609;49.992;14.512;2022-11-20T07:17:02;97541.66;;;-3.12;64.56
75039;BME280;63609;49.992;14.512;2022-11-20T07:19:29;97513.47;;;-2.89;64.06
75039;BME280;63609;49.992;14.512;2022-11-20T07:21:56;97525.69;;;-2.90;64.04
75039;BME280;63609;49.992;14.512;2022-11-20T07:24:23;97539.91;;;-2.15;62.02
75039;BME280;63609;49.992;14.512;2022-11-20T07:26:49;97522.88;;;-2.22;61.65
75039;BME280;63609;49.992;14.512;2022-11-20T07:29:16;97539.34;;;-2.20;62.52
75039;BME280;63609;49.992;14.512;2022-11-20T07:31:43;97513.72;;;-2.00;60.55
75039;BME280;63609;49.992;14.512;2022-11-20T07:34:10;97522.91;;;-1.77;60.26
75039;BME280;63609;49.992;14.512;2022-11-20T07:36:37;97536.00;;;-1.92;61.31
75039;BME280;63609;49.992;14.512;2022-11-20T07:39:03;97514.31;;;-1.94;60.50
75039;BME280;63609;49.992;14.512;2022-11-20T07:41:30;97539.34;;;-1.75;60.83
75039;BME280;63609;49.992;14.512;2022-11-20T07:43:57;97543.09;;;-1.64;60.46
75039;BME280;63609;49.992;14.512;2022-11-20T07:46:24;97534.13;;;-1.75;60.24
75039;BME280;63609;49.992;14.512;2022-11-20T07:48:51;97527.81;;;-1.86;60.71
75039;BME280;63609;49.992;14.512;2022-11-20T07:51:19;97509.44;;;-2.01;60.93
75039;BME280;63609;49.992;14.512;2022-11-20T07:53:50;97509.00;;;-1.93;60.66
75039;BME280;63609;49.992;14.512;2022-11-20T07:56:20;97524.94;;;-1.97;61.06
75039;BME280;63609;49.992;14.512;2022-11-20T07:58:46;97538.38;;;-1.88;60.92
75039;BME280;63609;49.992;14.512;2022-11-20T08:01:13;97548.22;;;-1.77;60.89
75039;BME280;63609;49.992;14.512;2022-11-20T08:03:40;97550.97;;;-1.64;60.29
75039;BME280;63609;49.992;14.512;2022-11-20T08:06:07;97552.38;;;-1.59;60.52
75039;BME280;63609;49.992;14.512;2022-11-20T08:08:34;97546.34;;;-1.45;59.88
75039;BME280;63609;49.992;14.512;2022-11-20T08:11:08;97547.19;;;-1.45;59.49
75039;BME280;63609;49.992;14.512;2022-11-20T08:13:53;97526.25;;;-1.45;59.55
75039;BME280;63609;49.992;14.512;2022-11-20T08:19:07;97552.28;;;-1.27;59.05
75039;BME280;63609;49.992;14.512;2022-11-20T08:21:34;97527.47;;;-1.36;59.47
75039;BME280;63609;49.992;14.512;2022-11-20T08:24:04;97531.84;;;-1.21;59.01
75039;BME280;63609;49.992;14.512;2022-11-20T08:26:31;97531.47;;;-1.00;58.40
75039;BME280;63609;49.992;14.512;2022-11-20T08:28:58;97533.78;;;-1.10;58.57
75039;BME280;63609;49.992;14.512;2022-11-20T08:31:28;97535.47;;;-1.23;59.77
75039;BME280;63609;49.992;14.512;2022-11-20T08:33:56;97511.13;;;-1.40;59.55
75039;BME280;63609;49.992;14.512;2022-11-20T08:36:24;97542.66;;;-1.27;59.86
75039;BME280;63609;49.992;14.512;2022-11-20T08:38:52;97536.03;;;-1.18;59.74
75039;BME280;63609;49.992;14.512;2022-11-20T08:41:21;97518.44;;;-1.02;59.16
75039;BME280;63609;49.992;14.512;2022-11-20T08:44:06;97519.75;;;-1.09;59.66
75039;BME280;63609;49.992;14.512;2022-11-20T08:46:36;97503.56;;;-1.01;59.91
75039;BME280;63609;49.992;14.512;2022-11-20T08:49:05;97503.59;;;-0.87;59.42
75039;BME280;63609;49.992;14.512;2022-11-20T08:51:35;97503.59;;;-0.87;59.42
75039;BME280;63609;49.992;14.512;2022-11-20T08:54:02;97482.53;;;-1.00;58.92
75039;BME280;63609;49.992;14.512;2022-11-20T08:56:29;97478.31;;;-1.02;59.14
75039;BME280;63609;49.992;14.512;2022-11-20T08:58:56;97498.53;;;-0.90;59.46
75039;BME280;63609;49.992;14.512;2022-11-20T09:01:43;97497.50;;;-0.88;59.60
75039;BME280;63609;49.992;14.512;2022-11-20T09:04:10;97495.13;;;-0.64;59.06
75039;BME280;63609;49.992;14.512;2022-11-20T09:06:38;97496.75;;;-0.76;59.06
75039;BME280;63609;49.992;14.512;2022-11-20T09:09:04;97497.31;;;-0.85;59.46
75039;BME280;63609;49.992;14.512;2022-11-20T09:11:34;97492.91;;;-0.70;59.78
75039;BME280;63609;49.992;14.512;2022-11-20T09:14:00;97499.81;;;-0.69;60.21
75039;BME280;63609;49.992;14.512;2022-11-20T09:16:29;97504.03;;;-0.66;60.17
75039;BME280;63609;49.992;14.512;2022-11-20T09:18:56;97493.13;;;-0.87;60.53
75039;BME280;63609;49.992;14.512;2022-11-20T09:21:42;97469.88;;;-0.93;59.56
75039;BME280;63609;49.992;14.512;2022-11-20T09:24:09;97514.69;;;-0.69;60.38
75039;BME280;63609;49.992;14.512;2022-11-20T09:26:36;97513.69;;;-0.81;60.83
75039;BME280;63609;49.992;14.512;2022-11-20T09:29:02;97516.03;;;-0.77;60.55
75039;BME280;63609;49.992;14.512;2022-11-20T09:31:30;97508.22;;;-0.64;59.60
75039;BME280;63609;49.992;14.512;2022-11-20T09:33:56;97507.28;;;-0.63;60.19
75039;BME280;63609;49.992;14.512;2022-11-20T09:36:23;97511.88;;;-0.66;61.04
75039;BME280;63609;49.992;14.512;2022-11-20T09:38:50;97514.41;;;-0.65;60.52
75039;BME280;63609;49.992;14.512;2022-11-20T09:41:31;97517.91;;;-0.79;60.49
75039;BME280;63609;49.992;14.512;2022-11-20T09:47:12;97491.03;;;-0.68;60.32
75039;BME280;63609;49.992;14.512;2022-11-20T09:55:02;97483.78;;;-0.50;60.10
75039;BME280;63609;49.992;14.512;2022-11-20T09:57:39;97486.13;;;-0.46;61.58
75039;BME280;63609;49.992;14.512;2022-11-20T10:00:12;97476.78;;;-0.64;61.81
75039;BME280;63609;49.992;14.512;2022-11-20T10:02:55;97463.03;;;-0.53;60.75
75039;BME280;63609;49.992;14.512;2022-11-20T10:05:44;97464.25;;;-0.32;60.56
75039;BME280;63609;49.992;14.512;2022-11-20T10:08:25;97470.50;;;-0.20;60.06
75039;BME280;63609;49.992;14.512;2022-11-20T10:11:05;97456.56;;;-0.21;59.92
75039;BME280;63609;49.992;14.512;2022-11-20T10:19:10;97464.63;;;-0.24;60.22
75039;BME280;63609;49.992;14.512;2022-11-20T10:27:03;97438.50;;;0.14;58.98
75039;BME280;63609;49.992;14.512;2022-11-20T10:29:35;97451.81;;;0.11;60.16
75039;BME280;63609;49.992;14.512;2022-11-20T10:32:09;97470.75;;;-0.10;60.66
75039;BME280;63609;49.992;14.512;2022-11-20T10:35:03;97471.75;;;-0.81;62.61
75039;BME280;63609;49.992;14.512;2022-11-20T10:37:33;97450.41;;;-0.34;61.50
75039;BME280;63609;49.992;14.512;2022-11-20T10:43:34;97430.09;;;0.09;60.34
75039;BME280;63609;49.992;14.512;2022-11-20T10:47:18;97423.06;;;-0.57;63.13
75039;BME280;63609;49.992;14.512;2022-11-20T10:49:50;97375.69;;;-0.68;62.42
75039;BME280;63609;49.992;14.512;2022-11-20T10:52:33;97425.53;;;-0.01;61.04
75039;BME280;63609;49.992;14.512;2022-11-20T10:55:33;97435.34;;;0.09;61.52
75039;BME280;63609;49.992;14.512;2022-11-20T11:01:21;97445.88;;;-0.05;61.83
75039;BME280;63609;49.992;14.512;2022-11-20T11:03:52;97430.00;;;-0.16;61.59
75039;BME280;63609;49.992;14.512;2022-11-20T11:06:21;97449.25;;;-0.30;63.39
75039;BME280;63609;49.992;14.512;2022-11-20T11:08:53;97432.25;;;0.03;61.78
75039;BME280;63609;49.992;14.512;2022-11-20T11:11:29;97433.56;;;0.35;60.27
75039;BME280;63609;49.992;14.512;2022-11-20T11:14:12;97414.69;;;0.43;60.49
75039;BME280;63609;49.992;14.512;2022-11-20T11:16:56;97421.28;;;0.23;61.90
75039;BME280;63609;49.992;14.512;2022-11-20T11:19:25;97402.44;;;0.04;62.32
75039;BME280;63609;49.992;14.512;2022-11-20T11:21:56;97408.16;;;0.23;62.65
75039;BME280;63609;49.992;14.512;2022-11-20T11:24:25;97408.22;;;-0.04;65.30
75039;BME280;63609;49.992;14.512;2022-11-20T11:27:14;97410.47;;;-0.25;65.11
75039;BME280;63609;49.992;14.512;2022-11-20T11:29:45;97409.78;;;-0.14;65.11
75039;BME280;63609;49.992;14.512;2022-11-20T11:32:18;97394.22;;;-0.57;65.39
75039;BME280;63609;49.992;14.512;2022-11-20T11:35:01;97394.84;;;-0.53;65.88
75039;BME280;63609;49.992;14.512;2022-11-20T11:37:34;97388.25;;;-0.46;65.38
75039;BME280;63609;49.992;14.512;2022-11-20T11:40:03;97400.84;;;-1.07;68.86
75039;BME280;63609;49.992;14.512;2022-11-20T11:42:59;97386.81;;;-0.37;65.97
75039;BME280;63609;49.992;14.512;2022-11-20T11:45:26;97386.81;;;0.02;64.86
75039;BME280;63609;49.992;14.512;2022-11-20T11:47:57;97394.47;;;-0.34;65.92
75039;BME280;63609;49.992;14.512;2022-11-20T11:50:27;97384.34;;;-0.26;66.07
75039;BME280;63609;49.992;14.512;2022-11-20T11:53:14;97397.28;;;-0.50;67.09
75039;BME280;63609;49.992;14.512;2022-11-20T11:55:48;97404.13;;;-0.62;67.56
75039;BME280;63609;49.992;14.512;2022-11-20T11:58:22;97407.69;;;-1.32;69.35
75039;BME280;63609;49.992;14.512;2022-11-20T12:00:58;97400.97;;;-1.22;69.37
75039;BME280;63609;49.992;14.512;2022-11-20T12:03:37;97388.34;;;-0.75;68.56
75039;BME280;63609;49.992;14.512;2022-11-20T12:06:10;97398.28;;;-0.80;67.82
75039;BME280;63609;49.992;14.512;2022-11-20T12:09:14;97377.53;;;-0.83;68.67
75039;BME280;63609;49.992;14.512;2022-11-20T12:14:33;97374.28;;;-0.59;68.20
75039;BME280;63609;49.992;14.512;2022-11-20T12:17:02;97380.19;;;-0.03;66.04
75039;BME280;63609;49.992;14.512;2022-11-20T12:19:30;97378.50;;;-0.04;65.45
75039;BME280;63609;49.992;14.512;2022-11-20T12:30:10;97354.41;;;0.54;62.98
75039;BME280;63609;49.992;14.512;2022-11-20T12:41:22;97367.50;;;0.03;65.24
75039;BME280;63609;49.992;14.512;2022-11-20T12:50:44;97339.09;;;0.85;64.00
75039;BME280;63609;49.992;14.512;2022-11-20T12:54:05;97322.59;;;1.19;
75039;BME280;63609;49.992;14.512;2022-11-20T12:57:07;97340.13;;;0.95;64.41
75039;BME280;63609;49.992;14.512;2022-11-20T13:03:13;97335.19;;;0.90;63.91
75039;BME280;63609;49.992;14.512;2022-11-20T13:08:36;97325.78;;;1.11;62.63
75039;BME280;63609;49.992;14.512;2022-11-20T13:19:34;97315.84;;;0.55;64.60
75039;BME280;63609;49.992;14.512;2022-11-20T13:22:01;97317.03;;;0.38;65.80
75039;BME280;63609;49.992;14.512;2022-11-20T13:24:30;97327.66;;;0.86;64.77
75039;BME280;63609;49.992;14.512;2022-11-20T13:29:31;97318.75;;;0.75;64.35
75039;BME280;63609;49.992;14.512;2022-11-20T13:32:15;97310.56;;;0.67;64.56
75039;BME280;63609;49.992;14.512;2022-11-20T13:34:56;97310.75;;;1.13;63.89
75039;BME280;63609;49.992;14.512;2022-11-20T13:37:34;97303.41;;;1.30;62.94
75039;BME280;63609;49.992;14.512;2022-11-20T13:40:10;97291.97;;;1.66;61.80
75039;BME280;63609;49.992;14.512;2022-11-20T13:43:04;97289.28;;;1.79;61.56
75039;BME280;63609;49.992;14.512;2022-11-20T13:45:33;97293.22;;;1.73;61.28
75039;BME280;63609;49.992;14.512;2022-11-20T13:48:04;97292.75;;;1.44;62.42
75039;BME280;63609;49.992;14.512;2022-11-20T13:50:39;97302.53;;;0.81;64.10
75039;BME280;63609;49.992;14.512;2022-11-20T13:59:06;97291.97;;;2.01;60.72
75039;BME280;63609;49.992;14.512;2022-11-20T14:01:43;97306.25;;;1.74;61.53
75039;BME280;63609;49.992;14.512;2022-11-20T14:04:18;97314.09;;;1.63;62.04
75039;BME280;63609;49.992;14.512;2022-11-20T14:06:48;97307.41;;;1.59;62.02
75039;BME280;63609;49.992;14.512;2022-11-20T14:09:30;97316.44;;;1.79;60.82
75039;BME280;63609;49.992;14.512;2022-11-20T14:11:59;97314.31;;;1.84;60.93
75039;BME280;63609;49.992;14.512;2022-11-20T14:14:32;97298.09;;;2.13;59.69
75039;BME280;63609;49.992;14.512;2022-11-20T14:19:52;97289.59;;;2.09;59.30
75039;BME280;63609;49.992;14.512;2022-11-20T14:22:22;97284.44;;;1.61;60.74
75039;BME280;63609;49.992;14.512;2022-11-20T14:27:40;97283.00;;;2.03;59.84
75039;BME280;63609;49.992;14.512;2022-11-20T14:30:14;97277.16;;;2.11;59.41
75039;BME280;63609;49.992;14.512;2022-11-20T14:32:43;97284.16;;;1.88;59.84
75039;BME280;63609;49.992;14.512;2022-11-20T14:35:33;97284.03;;;1.79;59.75
75039;BME280;63609;49.992;14.512;2022-11-20T14:38:02;97289.41;;;1.42;61.74
75039;BME280;63609;49.992;14.512;2022-11-20T14:40:31;97298.06;;;1.55;60.91
75039;BME280;63609;49.992;14.512;2022-11-20T14:42:59;97293.97;;;1.51;61.32
75039;BME280;63609;49.992;14.512;2022-11-20T14:45:26;97297.50;;;1.39;61.88
75039;BME280;63609;49.992;14.512;2022-11-20T14:47:56;97300.28;;;1.25;61.78
75039;BME280;63609;49.992;14.512;2022-11-20T14:50:26;97294.25;;;1.35;61.78
75039;BME280;63609;49.992;14.512;2022-11-20T14:52:56;97303.03;;;1.23;61.64